createdAt,value
2018-08-19T00:00:27.798Z,17.7
2018-08-19T00:01:17.920Z,17.7
2018-08-19T00:02:08.205Z,17.7
2018-08-19T00:02:58.266Z,17.7
2018-08-19T00:03:48.383Z,17.7
2018-08-19T00:04:38.411Z,17.7
2018-08-19T00:05:28.479Z,17.7
2018-08-19T00:06:18.577Z,17.7
2018-08-19T00:07:08.588Z,17.8
2018-08-19T00:07:58.418Z,17.8
2018-08-19T00:08:48.781Z,17.8
2018-08-19T00:09:38.513Z,17.8
2018-08-19T00:10:28.858Z,17.8
2018-08-19T00:11:18.914Z,17.8
2018-08-19T00:12:08.713Z,17.8
2018-08-19T00:12:59.044Z,17.8
2018-08-19T00:13:48.852Z,17.8
2018-08-19T00:14:38.892Z,17.8
2018-08-19T00:15:28.969Z,17.9
2018-08-19T00:16:19.086Z,17.9
2018-08-19T00:17:09.406Z,17.9
2018-08-19T00:17:59.464Z,17.8
2018-08-19T00:18:49.469Z,17.8
2018-08-19T00:37:41.060Z,17.1
2018-08-19T00:38:31.109Z,17.2
2018-08-19T00:39:20.898Z,17.1
2018-08-19T00:41:00.735Z,16.9
2018-08-19T00:42:41.489Z,17.1
2018-08-19T00:43:31.224Z,17.1
2018-08-19T00:44:21.268Z,17.1
2018-08-19T00:45:11.359Z,17.1
2018-08-19T00:46:01.727Z,17.1
2018-08-19T00:46:51.488Z,17.1
2018-08-19T00:47:41.636Z,17.1
2018-08-19T00:48:31.939Z,17.1
2018-08-19T00:49:21.948Z,17.1
2018-08-19T00:50:12.044Z,17.1
2018-08-19T00:51:52.170Z,16.9
2018-08-19T00:52:42.210Z,16.9
2018-08-19T00:53:32.297Z,16.8
2018-08-19T00:54:21.782Z,16.8
2018-08-19T00:55:12.455Z,16.8
2018-08-19T00:56:02.476Z,16.7
2018-08-19T00:56:52.298Z,16.7
2018-08-19T00:57:42.621Z,16.8
2018-08-19T00:58:32.377Z,16.8
2018-08-19T00:59:22.467Z,16.8
2018-08-19T01:00:12.816Z,16.7
2018-08-19T01:01:02.857Z,16.8
2018-08-19T01:01:52.918Z,16.8
2018-08-19T01:02:43.007Z,16.8
2018-08-19T01:03:32.773Z,16.7
2018-08-19T01:04:23.108Z,16.7
2018-08-19T01:05:13.166Z,16.8
2018-08-19T01:06:03.246Z,16.9
2018-08-19T01:06:53.304Z,16.9
2018-08-19T01:07:43.086Z,16.9
2018-08-19T01:09:23.240Z,17.1
2018-08-19T01:10:13.605Z,17.1
2018-08-19T01:13:33.807Z,16.9
2018-08-19T01:14:23.610Z,16.9
2018-08-19T01:15:13.946Z,16.9
2018-08-19T01:16:04.010Z,16.9
2018-08-19T01:16:54.060Z,16.9
2018-08-19T01:17:44.148Z,16.9
2018-08-19T01:18:34.205Z,16.8
2018-08-19T01:19:24.350Z,16.8
2018-08-19T01:20:14.326Z,16.8
2018-08-19T01:21:04.188Z,16.8
2018-08-19T01:21:53.994Z,16.8
2018-08-19T01:22:44.558Z,16.8
2018-08-19T01:23:34.347Z,16.7
2018-08-19T01:24:24.413Z,16.6
2018-08-19T01:25:14.495Z,16.6
2018-08-19T01:26:04.547Z,16.6
2018-08-19T01:26:54.627Z,16.6
2018-08-19T01:27:44.949Z,16.5
2018-08-19T01:28:34.471Z,16.5
2018-08-19T01:29:24.824Z,16.5
2018-08-19T01:30:15.172Z,16.5
2018-08-19T01:31:04.715Z,16.5
2018-08-19T01:31:55.267Z,16.5
2018-08-19T01:32:45.047Z,16.6
2018-08-19T01:33:35.411Z,16.6
2018-08-19T01:34:25.479Z,16.6
2018-08-19T01:35:15.557Z,16.6
2018-08-19T01:36:05.317Z,16.6
2018-08-19T01:36:55.661Z,16.6
2018-08-19T01:37:45.453Z,16.6
2018-08-19T01:38:34.696Z,16.6
2018-08-19T01:39:25.597Z,16.6
2018-08-19T01:40:15.642Z,16.6
2018-08-19T01:41:05.114Z,16.6
2018-08-19T01:41:55.762Z,16.6
2018-08-19T01:42:45.557Z,16.5
2018-08-19T01:43:35.898Z,16.5
2018-08-19T01:44:25.966Z,16.5
2018-08-19T01:45:16.289Z,16.6
2018-08-19T01:46:06.389Z,16.6
2018-08-19T01:46:55.878Z,16.6
2018-08-19T01:47:45.943Z,16.6
2018-08-19T01:48:36.566Z,16.6
2018-08-19T01:49:26.053Z,16.6
2018-08-19T01:50:16.700Z,16.6
2018-08-19T01:51:06.772Z,16.5
2018-08-19T01:51:56.558Z,16.5
2018-08-19T01:52:46.866Z,16.4
2018-08-19T01:53:36.663Z,16.4
2018-08-19T01:54:27.032Z,16.4
2018-08-19T01:55:17.057Z,16.4
2018-08-19T01:56:06.897Z,16.4
2018-08-19T01:56:57.187Z,16.3
2018-08-19T01:57:46.724Z,16.3
2018-08-19T01:58:37.354Z,16.3
2018-08-19T01:59:26.872Z,16.3
2018-08-19T02:00:17.467Z,16.3
2018-08-19T02:01:07.556Z,16.3
2018-08-19T02:01:57.610Z,16.3
2018-08-19T02:02:47.687Z,16.3
2018-08-19T02:03:36.907Z,16.3
2018-08-19T02:04:27.523Z,16.3
2018-08-19T02:05:17.895Z,16.3
2018-08-19T02:06:07.406Z,16.2
2018-08-19T02:06:58.036Z,16.2
2018-08-19T02:07:47.795Z,16.1
2018-08-19T02:08:37.844Z,16.2
2018-08-19T02:09:27.653Z,16.1
2018-08-19T02:10:17.978Z,16
2018-08-19T02:11:08.080Z,16
2018-08-19T02:11:58.425Z,16
2018-08-19T02:12:48.493Z,15.9
2018-08-19T02:13:38.234Z,16
2018-08-19T02:14:28.604Z,15.9
2018-08-19T02:15:18.644Z,15.9
2018-08-19T02:16:08.415Z,15.8
2018-08-19T02:16:58.210Z,15.8
2018-08-19T02:17:48.259Z,15.9
2018-08-19T02:18:38.939Z,15.9
2018-08-19T02:19:28.689Z,15.9
2018-08-19T02:20:19.001Z,15.9
2018-08-19T02:21:09.096Z,16
2018-08-19T02:21:59.143Z,16
2018-08-19T02:22:48.369Z,16
2018-08-19T02:23:39.265Z,16.1
2018-08-19T02:24:29.074Z,16.1
2018-08-19T02:25:18.869Z,16.3
2018-08-19T02:26:09.192Z,16.2
2018-08-19T02:26:59.005Z,16.2
2018-08-19T02:27:49.035Z,16.1
2018-08-19T02:28:39.411Z,16.1
2018-08-19T02:29:29.472Z,16.1
2018-08-19T02:30:19.837Z,16.1
2018-08-19T02:31:09.871Z,16.1
2018-08-19T02:31:59.374Z,16.1
2018-08-19T02:32:50.014Z,16.1
2018-08-19T02:33:39.528Z,16.1
2018-08-19T02:34:30.156Z,16.2
2018-08-19T02:35:19.947Z,16.2
2018-08-19T02:36:09.774Z,16.3
2018-08-19T02:37:00.348Z,16.2
2018-08-19T02:37:50.390Z,16.2
2018-08-19T02:38:40.467Z,16.2
2018-08-19T02:39:30.550Z,16.1
2018-08-19T02:40:20.069Z,16.1
2018-08-19T02:41:10.695Z,16.1
2018-08-19T02:42:00.474Z,16.1
2018-08-19T02:42:50.831Z,16.1
2018-08-19T02:43:40.881Z,16.1
2018-08-19T02:44:30.673Z,16
2018-08-19T02:45:21.070Z,16
2018-08-19T02:46:11.075Z,15.9
2018-08-19T02:47:01.153Z,15.9
2018-08-19T02:47:50.637Z,15.9
2018-08-19T02:48:41.006Z,15.9
2018-08-19T02:49:31.041Z,15.9
2018-08-19T02:50:21.392Z,15.9
2018-08-19T02:51:11.165Z,15.9
2018-08-19T02:52:01.480Z,15.9
2018-08-19T02:52:51.543Z,15.9
2018-08-19T02:53:41.318Z,16
2018-08-19T02:54:31.714Z,16
2018-08-19T02:55:21.577Z,16.1
2018-08-19T02:56:11.519Z,16.1
2018-08-19T02:57:01.324Z,16.1
2018-08-19T02:57:51.669Z,16.1
2018-08-19T02:58:41.467Z,16.1
2018-08-19T02:59:31.610Z,16.1
2018-08-19T03:00:21.830Z,16.1
2018-08-19T03:01:12.204Z,16.1
2018-08-19T03:02:01.712Z,16.1
2018-08-19T03:02:52.313Z,16.1
2018-08-19T03:03:42.144Z,16.1
2018-08-19T03:04:32.467Z,16.1
2018-08-19T03:05:22.535Z,16.1
2018-08-19T03:06:12.608Z,16.1
2018-08-19T03:07:02.347Z,16.1
2018-08-19T03:07:52.705Z,16.1
2018-08-19T03:08:42.787Z,16
2018-08-19T03:09:32.867Z,16
2018-08-19T03:10:22.646Z,16
2018-08-19T03:11:12.983Z,16
2018-08-19T03:12:02.807Z,16.1
2018-08-19T03:12:52.865Z,16
2018-08-19T03:13:43.203Z,16
2018-08-19T03:14:33.247Z,15.9
2018-08-19T03:15:23.353Z,16
2018-08-19T03:16:13.149Z,16
2018-08-19T03:17:02.885Z,15.9
2018-08-19T03:17:53.525Z,15.9
2018-08-19T03:18:43.290Z,15.9
2018-08-19T03:19:33.095Z,15.8
2018-08-19T03:20:23.724Z,15.8
2018-08-19T03:21:13.774Z,15.8
2018-08-19T03:22:03.832Z,15.8
2018-08-19T03:22:53.615Z,15.8
2018-08-19T03:23:43.961Z,15.8
2018-08-19T03:24:34.052Z,15.7
2018-08-19T03:25:24.115Z,15.7
2018-08-19T03:26:13.887Z,15.6
2018-08-19T03:27:04.228Z,15.6
2018-08-19T03:27:53.479Z,15.6
2018-08-19T03:28:44.045Z,15.6
2018-08-19T03:29:34.422Z,15.6
2018-08-19T03:30:24.570Z,15.6
2018-08-19T03:31:14.307Z,15.6
2018-08-19T03:32:04.624Z,15.6
2018-08-19T03:32:54.677Z,15.6
2018-08-19T03:33:44.745Z,15.6
2018-08-19T03:34:34.234Z,15.6
2018-08-19T03:35:24.272Z,15.6
2018-08-19T03:36:14.975Z,15.6
2018-08-19T03:37:04.743Z,15.6
2018-08-19T03:37:54.931Z,15.6
2018-08-19T03:38:45.127Z,15.6
2018-08-19T03:39:34.886Z,15.6
2018-08-19T03:40:25.305Z,15.6
2018-08-19T03:41:15.033Z,15.7
2018-08-19T03:42:05.133Z,15.7
2018-08-19T03:42:55.168Z,15.6
2018-08-19T03:43:45.239Z,15.6
2018-08-19T03:44:35.548Z,15.6
2018-08-19T03:45:25.658Z,15.6
2018-08-19T03:46:15.721Z,15.6
2018-08-19T03:47:05.538Z,15.5
2018-08-19T03:47:55.556Z,15.5
2018-08-19T03:48:45.911Z,15.6
2018-08-19T03:49:36.040Z,15.6
2018-08-19T03:50:26.060Z,15.6
2018-08-19T03:51:16.112Z,15.5
2018-08-19T03:52:05.886Z,15.5
2018-08-19T03:52:55.709Z,15.5
2018-08-19T03:53:46.022Z,15.5
2018-08-19T03:54:36.081Z,15.5
2018-08-19T03:55:26.446Z,15.5
2018-08-19T03:56:15.998Z,15.6
2018-08-19T03:57:06.606Z,15.6
2018-08-19T03:57:56.331Z,15.7
2018-08-19T03:58:46.693Z,15.8
2018-08-19T03:59:36.476Z,15.9
2018-08-19T04:00:26.270Z,15.9
2018-08-19T04:01:16.878Z,15.8
2018-08-19T04:02:06.957Z,15.8
2018-08-19T04:02:56.711Z,15.7
2018-08-19T04:03:47.078Z,15.7
2018-08-19T04:04:35.977Z,15.6
2018-08-19T04:05:26.924Z,15.6
2018-08-19T04:06:17.027Z,15.6
2018-08-19T04:07:07.309Z,15.6
2018-08-19T04:07:57.382Z,15.6
2018-08-19T04:08:47.460Z,15.6
2018-08-19T04:09:37.213Z,15.7
2018-08-19T04:10:26.750Z,15.7
2018-08-19T04:11:17.379Z,15.7
2018-08-19T04:12:07.427Z,15.8
2018-08-19T04:12:57.773Z,15.8
2018-08-19T04:13:47.552Z,15.8
2018-08-19T04:14:37.362Z,15.9
2018-08-19T04:15:27.680Z,16
2018-08-19T04:16:17.741Z,16.1
2018-08-19T04:17:07.847Z,16.1
2018-08-19T04:17:57.899Z,16.1
2018-08-19T04:18:47.708Z,16.1
2018-08-19T04:19:38.291Z,16.2
2018-08-19T04:20:28.090Z,16.2
2018-08-19T04:21:18.174Z,16.2
2018-08-19T04:22:08.594Z,16.3
2018-08-19T04:22:57.998Z,16.3
2018-08-19T04:23:48.422Z,16.3
2018-08-19T04:24:38.164Z,16.3
2018-08-19T04:25:28.754Z,16.4
2018-08-19T04:26:18.827Z,16.4
2018-08-19T04:27:08.335Z,16.5
2018-08-19T04:27:58.694Z,16.5
2018-08-19T04:28:49.014Z,16.6
2018-08-19T04:29:39.076Z,16.6
2018-08-19T04:30:29.144Z,16.6
2018-08-19T04:31:18.664Z,16.6
2018-08-19T04:32:09.445Z,16.6
2018-08-19T04:32:59.079Z,16.6
2018-08-19T04:33:49.141Z,16.6
2018-08-19T04:34:39.457Z,16.6
2018-08-19T04:35:29.531Z,16.6
2018-08-19T04:36:19.620Z,16.7
2018-08-19T04:37:09.685Z,16.7
2018-08-19T04:37:59.478Z,16.8
2018-08-19T04:38:49.790Z,16.9
2018-08-19T04:39:39.498Z,16.9
2018-08-19T04:40:29.971Z,16.9
2018-08-19T04:42:09.668Z,17.1
2018-08-19T04:43:00.096Z,17.1
2018-08-19T04:43:49.931Z,17.1
2018-08-19T04:44:39.957Z,17.2
2018-08-19T04:45:30.023Z,17.1
2018-08-19T04:46:20.091Z,17.2
2018-08-19T04:47:10.153Z,17.3
2018-08-19T04:48:00.507Z,17.3
2018-08-19T04:48:50.560Z,17.3
2018-08-19T05:06:50.774Z,18.4
2018-08-19T05:07:40.415Z,18.6
2018-08-19T05:08:45.580Z,18.6
2018-08-19T05:09:20.671Z,18.6
2018-08-19T05:10:11.408Z,18.5
2018-08-19T05:11:01.137Z,18.6
2018-08-19T05:11:51.163Z,18.6
2018-08-19T05:12:40.988Z,18.5
2018-08-19T05:13:31.267Z,18.6
2018-08-19T05:14:35.773Z,18.6
2018-08-19T05:15:10.910Z,18.8
2018-08-19T05:16:01.055Z,18.9
2018-08-19T05:16:51.557Z,18.8
2018-08-19T05:17:41.871Z,18.8
2018-08-19T05:18:46.331Z,18.8
2018-08-19T05:19:36.401Z,18.9
2018-08-19T05:21:01.925Z,19.4
2018-08-19T05:21:51.383Z,19.4
2018-08-19T05:22:43.034Z,19.5
2018-08-19T05:23:31.809Z,19.4
2018-08-19T05:24:22.147Z,19.4
2018-08-19T05:25:15.143Z,19.6
2018-08-19T05:26:01.998Z,19.6
2018-08-19T05:26:52.378Z,19.6
2018-08-19T05:27:42.189Z,19.6
2018-08-19T05:28:32.909Z,19.8
2018-08-19T05:29:21.965Z,19.9
2018-08-19T05:30:12.308Z,19.9
2018-08-19T05:31:02.660Z,19.9
2018-08-19T05:31:52.770Z,20
2018-08-19T05:32:42.800Z,20
2018-08-19T05:33:32.295Z,20.1
2018-08-19T05:34:22.884Z,20.1
2018-08-19T05:35:12.967Z,20
2018-08-19T05:36:03.044Z,20.2
2018-08-19T05:36:52.831Z,20.2
2018-08-19T05:37:42.892Z,20.3
2018-08-19T05:38:32.944Z,20.4
2018-08-19T05:39:22.992Z,20.5
2018-08-19T05:41:03.435Z,20.5
2018-08-19T05:41:53.487Z,20.6
2018-08-19T05:42:43.548Z,20.5
2018-08-19T05:43:33.331Z,20.8
2018-08-19T05:44:23.679Z,20.9
2018-08-19T05:45:13.168Z,20.9
2018-08-19T05:46:03.523Z,21.1
2018-08-19T05:46:53.861Z,21.3
2018-08-19T05:47:43.927Z,21.4
2018-08-19T05:48:34.012Z,21.3
2018-08-19T05:49:23.781Z,21.4
2018-08-19T05:50:13.843Z,21.4
2018-08-19T05:51:03.655Z,21.3
2018-08-19T05:51:54.314Z,21.3
2018-08-19T05:52:44.056Z,21.3
2018-08-19T05:53:33.840Z,21.4
2018-08-19T05:54:24.205Z,21.4
2018-08-19T05:55:14.272Z,21.4
2018-08-19T05:56:04.023Z,21.4
2018-08-19T05:56:54.679Z,21.4
2018-08-19T05:57:44.737Z,21.4
2018-08-19T05:58:34.775Z,21.5
2018-08-19T05:59:24.618Z,21.5
2018-08-19T06:00:14.650Z,21.6
2018-08-19T06:01:04.893Z,21.5
2018-08-19T06:01:54.796Z,21.6
2018-08-19T06:02:45.157Z,21.6
2018-08-19T06:03:34.896Z,21.6
2018-08-19T06:04:25.432Z,21.6
2018-08-19T06:05:15.316Z,21.7
2018-08-19T06:06:05.365Z,21.8
2018-08-19T06:06:55.435Z,21.9
2018-08-19T06:07:45.456Z,22
2018-08-19T06:08:35.284Z,22.1
2018-08-19T06:09:25.706Z,22.3
2018-08-19T06:10:15.662Z,22.1
2018-08-19T06:11:05.765Z,21.9
2018-08-19T06:11:55.781Z,21.9
2018-08-19T06:12:45.580Z,22.1
2018-08-19T06:13:35.947Z,22.2
2018-08-19T06:14:26.034Z,22
2018-08-19T06:15:15.815Z,22.3
2018-08-19T06:16:05.665Z,22.3
2018-08-19T06:16:56.197Z,22.2
2018-08-19T06:17:46.241Z,22.3
2018-08-19T06:18:36.097Z,22.4
2018-08-19T06:19:26.451Z,22.4
2018-08-19T06:20:16.460Z,22.6
2018-08-19T06:21:06.297Z,22.6
2018-08-19T06:21:56.915Z,22.6
2018-08-19T06:22:45.812Z,22.6
2018-08-19T06:23:36.141Z,22.4
2018-08-19T06:24:26.516Z,22.6
2018-08-19T06:25:31.260Z,22.6
2018-08-19T06:26:06.922Z,22.9
2018-08-19T06:26:56.719Z,23
2018-08-19T06:27:47.145Z,22.9
2018-08-19T06:28:36.865Z,22.8
2018-08-19T06:29:26.919Z,22.9
2018-08-19T06:30:16.982Z,23.1
2018-08-19T06:31:07.902Z,23.1
2018-08-19T06:31:57.125Z,22.7
2018-08-19T06:32:46.816Z,21.8
2018-08-19T06:33:36.944Z,21.8
2018-08-19T06:34:27.945Z,21.9
2018-08-19T06:35:17.696Z,22.1
2018-08-19T06:36:07.706Z,22.7
2018-08-19T06:36:57.831Z,23.1
2018-08-19T06:37:47.850Z,23.4
2018-08-19T06:38:37.621Z,23.6
2018-08-19T06:39:27.683Z,23.7
2018-08-19T06:40:18.161Z,23.5
2018-08-19T06:41:08.131Z,23.6
2018-08-19T06:41:58.219Z,23.8
2018-08-19T06:42:47.446Z,23.8
2018-08-19T06:43:38.277Z,23.4
2018-08-19T06:44:28.351Z,23.4
2018-08-19T06:45:18.403Z,23.7
2018-08-19T06:46:08.445Z,23.9
2018-08-19T06:46:57.946Z,24.1
2018-08-19T06:47:48.294Z,23.9
2018-08-19T06:48:38.668Z,24.1
2018-08-19T06:49:28.460Z,24.2
2018-08-19T06:50:18.503Z,24.3
2018-08-19T06:51:08.801Z,24.2
2018-08-19T06:51:58.908Z,24.3
2018-08-19T06:52:48.983Z,23.9
2018-08-19T06:53:39.065Z,23.8
2018-08-19T06:54:29.115Z,23.8
2018-08-19T06:55:19.162Z,24
2018-08-19T06:56:09.355Z,24.3
2018-08-19T06:56:59.288Z,24.4
2018-08-19T06:57:49.407Z,24.5
2018-08-19T06:58:39.429Z,24.7
2018-08-19T06:59:29.023Z,24.8
2018-08-19T07:00:19.414Z,24.9
2018-08-19T07:01:09.818Z,24.9
2018-08-19T07:01:59.431Z,24.9
2018-08-19T07:02:49.191Z,24.9
2018-08-19T07:03:40.330Z,25.3
2018-08-19T07:04:29.649Z,25.3
2018-08-19T07:05:19.982Z,25.4
2018-08-19T07:06:09.763Z,25.4
2018-08-19T07:06:59.853Z,25.3
2018-08-19T07:07:49.899Z,25.2
2018-08-19T07:08:39.959Z,25.3
2018-08-19T07:09:30.357Z,25.3
2018-08-19T07:10:19.339Z,25.1
2018-08-19T07:11:10.457Z,25
2018-08-19T07:11:59.933Z,24.8
2018-08-19T07:12:50.310Z,25.1
2018-08-19T07:13:39.855Z,25.4
2018-08-19T07:14:30.480Z,25.7
2018-08-19T07:15:20.489Z,26
2018-08-19T07:16:10.533Z,25.6
2018-08-19T07:17:00.301Z,25.6
2018-08-19T07:17:50.688Z,26
2018-08-19T07:18:41.681Z,25.8
2018-08-19T07:19:31.075Z,25.4
2018-08-19T07:20:20.605Z,25.4
2018-08-19T07:21:11.260Z,25.3
2018-08-19T07:22:01.246Z,25.3
2018-08-19T07:22:51.028Z,25.5
2018-08-19T07:23:41.380Z,25.8
2018-08-19T07:24:31.434Z,26
2018-08-19T07:25:21.493Z,26
2018-08-19T07:26:11.302Z,25.8
2018-08-19T07:27:01.664Z,26
2018-08-19T07:27:51.724Z,26.1
2018-08-19T07:28:41.793Z,26.4
2018-08-19T07:29:31.888Z,26.5
2018-08-19T07:30:21.633Z,25.9
2018-08-19T07:31:11.699Z,26.1
2018-08-19T07:32:01.762Z,26.4
2018-08-19T07:32:52.109Z,26.4
2018-08-19T07:33:42.159Z,26.4
2018-08-19T07:34:31.983Z,26.3
2018-08-19T07:35:22.017Z,26.4
2018-08-19T07:36:12.084Z,26.1
2018-08-19T07:37:02.391Z,25.9
2018-08-19T07:37:52.543Z,25.9
2018-08-19T07:38:42.595Z,26.2
2018-08-19T07:39:32.635Z,26.1
2018-08-19T07:40:22.719Z,25.8
2018-08-19T07:41:12.799Z,25.9
2018-08-19T07:42:02.584Z,25.9
2018-08-19T07:42:52.637Z,26.3
2018-08-19T07:43:42.441Z,26.8
2018-08-19T07:44:33.057Z,27.2
2018-08-19T07:45:23.089Z,27.3
2018-08-19T07:46:13.169Z,27.4
2018-08-19T07:47:02.966Z,27.4
2018-08-19T07:47:52.875Z,27.4
2018-08-19T07:48:43.081Z,27.6
2018-08-19T07:49:32.860Z,27.3
2018-08-19T07:50:23.226Z,27.1
2018-08-19T07:51:13.622Z,27.2
2018-08-19T07:52:03.371Z,27
2018-08-19T07:52:53.707Z,27.4
2018-08-19T07:53:43.500Z,27.8
2018-08-19T07:55:23.405Z,28
2018-08-19T07:56:14.005Z,28.1
2018-08-19T07:57:03.722Z,27.5
2018-08-19T07:57:53.773Z,27.5
2018-08-19T07:58:43.834Z,27.4
2018-08-19T07:59:33.618Z,27.3
2018-08-19T08:00:24.252Z,27.4
2018-08-19T08:01:14.113Z,27.4
2018-08-19T08:02:04.098Z,27.6
2018-08-19T08:02:54.531Z,27.6
2018-08-19T08:05:24.356Z,27.9
2018-08-19T08:06:14.717Z,28.3
2018-08-19T08:07:04.493Z,28.6
2018-08-19T08:07:54.533Z,28.9
2018-08-19T08:08:44.633Z,28.9
2018-08-19T08:09:34.686Z,29
2018-08-19T08:10:25.029Z,29.1
2018-08-19T08:11:15.101Z,29.3
2018-08-19T08:12:04.626Z,29.4
2018-08-19T08:12:55.242Z,29.3
2018-08-19T08:13:45.612Z,29.4
2018-08-19T08:14:35.352Z,28.8
2018-08-19T08:15:25.140Z,28.5
2018-08-19T08:16:15.504Z,29.1
2018-08-19T08:17:05.613Z,28.8
2018-08-19T08:17:55.109Z,29.1
2018-08-19T08:18:45.725Z,29
2018-08-19T08:19:35.785Z,29.1
2018-08-19T08:20:25.544Z,29.6
2018-08-19T08:21:16.946Z,30
2018-08-19T08:22:05.990Z,29.3
2018-08-19T08:22:55.824Z,29.1
2018-08-19T08:23:45.822Z,29.6
2018-08-19T08:24:35.979Z,29.3
2018-08-19T08:25:26.259Z,29.6
2018-08-19T08:26:16.288Z,29
2018-08-19T08:27:06.355Z,28.8
2018-08-19T08:27:56.463Z,28.9
2018-08-19T08:28:45.693Z,28.9
2018-08-19T08:29:35.793Z,28.8
2018-08-19T08:30:26.638Z,28.6
2018-08-19T08:31:16.682Z,28.8
2018-08-19T08:32:06.754Z,28.6
2018-08-19T08:32:56.533Z,29.1
2018-08-19T08:33:46.570Z,29.3
2018-08-19T08:34:36.951Z,29.8
2018-08-19T08:35:26.734Z,29.6
2018-08-19T08:36:16.560Z,30.2
2018-08-19T08:37:06.846Z,30
2018-08-19T08:37:56.904Z,29.4
2018-08-19T08:38:46.992Z,29.6
2018-08-19T08:39:37.310Z,29.4
2018-08-19T08:40:27.132Z,29.2
2018-08-19T08:41:17.175Z,28.8
2018-08-19T08:42:07.226Z,28.4
2018-08-19T08:42:57.332Z,28.5
2018-08-19T08:43:47.681Z,28.5
2018-08-19T08:44:37.960Z,28.9
2018-08-19T08:45:27.514Z,29.5
2018-08-19T08:46:17.575Z,29.8
2018-08-19T08:47:07.617Z,30.3
2018-08-19T08:47:58.734Z,30.3
2018-08-19T08:48:47.784Z,30.4
2018-08-19T08:49:37.845Z,30.7
2018-08-19T08:50:28.179Z,30.8
2018-08-19T08:51:17.983Z,30.8
2018-08-19T08:52:08.329Z,30
2018-08-19T08:52:58.136Z,30.1
2018-08-19T08:53:48.439Z,30.6
2018-08-19T08:54:38.264Z,30.9
2018-08-19T08:55:28.322Z,31.4
2018-08-19T08:56:18.865Z,31.6
2018-08-19T08:57:08.428Z,31.8
2018-08-19T08:57:58.781Z,31.9
2018-08-19T08:58:48.832Z,32.2
2018-08-19T08:59:38.636Z,32.3
2018-08-19T09:00:28.984Z,32.2
2018-08-19T09:01:18.193Z,32.2
2018-08-19T09:02:08.833Z,31.9
2018-08-19T09:02:59.180Z,30.4
2018-08-19T09:03:49.229Z,30.7
2018-08-19T09:04:39.308Z,30.9
2018-08-19T09:21:10.191Z,32.1
2018-08-19T09:22:00.781Z,32.4
2018-08-19T09:22:51.590Z,31.4
2018-08-19T09:23:40.901Z,31.1
2018-08-19T09:24:31.257Z,30.7
2018-08-19T09:25:21.324Z,30.1
2018-08-19T09:26:11.409Z,30.3
2018-08-19T09:27:01.467Z,31
2018-08-19T09:27:51.256Z,31.6
2018-08-19T09:28:41.567Z,31.1
2018-08-19T09:29:31.647Z,31.4
2018-08-19T09:30:21.456Z,31.5
2018-08-19T09:31:11.782Z,31.3
2018-08-19T09:32:01.901Z,30.9
2018-08-19T09:32:51.855Z,31.2
2018-08-19T09:33:41.999Z,30.8
2018-08-19T09:34:31.498Z,30.3
2018-08-19T09:35:21.867Z,30.4
2018-08-19T09:36:11.638Z,30.8
2018-08-19T09:37:02.248Z,31.3
2018-08-19T09:37:52.030Z,31.5
2018-08-19T09:38:42.401Z,30.9
2018-08-19T09:39:32.197Z,30.6
2018-08-19T09:40:22.225Z,30.4
2018-08-19T09:41:12.574Z,30.6
2018-08-19T09:42:02.636Z,31.1
2018-08-19T09:42:52.416Z,31.5
2018-08-19T09:43:42.210Z,31.3
2018-08-19T09:44:32.553Z,31.1
2018-08-19T09:45:22.615Z,31.3
2018-08-19T09:46:12.966Z,31.3
2018-08-19T09:47:02.485Z,31.4
2018-08-19T09:47:54.799Z,30.8
2018-08-19T09:48:42.595Z,31
2018-08-19T09:49:33.219Z,31.6
2018-08-19T09:50:23.009Z,31.7
2018-08-19T09:51:12.769Z,32.3
2018-08-19T09:52:02.561Z,32.3
2018-08-19T09:52:52.938Z,32.5
2018-08-19T09:53:43.539Z,32.9
2018-08-19T09:54:33.646Z,32.9
2018-08-19T09:55:22.832Z,32.5
2018-08-19T09:56:13.449Z,31.9
2018-08-19T09:57:03.550Z,32
2018-08-19T09:57:53.894Z,32.4
2018-08-19T09:58:43.114Z,32.4
2018-08-19T09:59:34.040Z,32.4
2018-08-19T10:00:24.058Z,32.5
2018-08-19T10:01:14.129Z,32.1
2018-08-19T10:02:04.212Z,32.6
2018-08-19T10:02:54.250Z,32.4
2018-08-19T10:03:44.313Z,33.1
2018-08-19T10:04:34.381Z,33.4
2018-08-19T10:05:24.453Z,33.4
2018-08-19T10:06:14.287Z,33.4
2018-08-19T10:07:04.337Z,33.5
2018-08-19T10:07:55.083Z,33.8
2018-08-19T10:08:44.477Z,33.6
2018-08-19T10:09:34.534Z,33.6
2018-08-19T10:10:24.594Z,33.5
2018-08-19T10:11:14.939Z,33.8
2018-08-19T10:12:04.544Z,33.8
2018-08-19T10:12:54.842Z,33.9
2018-08-19T10:13:45.960Z,34.4
2018-08-19T10:14:34.652Z,34.1
2018-08-19T10:15:25.305Z,33.8
2018-08-19T10:16:15.037Z,32.1
2018-08-19T10:17:05.119Z,32.3
2018-08-19T10:17:55.168Z,32.1
2018-08-19T10:18:45.253Z,32.3
2018-08-19T10:19:35.035Z,32.8
2018-08-19T10:20:25.362Z,33.2
2018-08-19T10:21:15.704Z,33.4
2018-08-19T10:22:05.781Z,33.5
2018-08-19T10:22:55.835Z,33.4
2018-08-19T10:23:45.611Z,33.8
2018-08-19T10:24:35.979Z,33
2018-08-19T10:25:26.039Z,32.8
2018-08-19T10:26:16.091Z,32.3
2018-08-19T10:27:05.571Z,32.5
2018-08-19T10:27:55.659Z,32.9
2018-08-19T10:28:46.263Z,32.8
2018-08-19T10:29:36.338Z,33.3
2018-08-19T10:30:26.122Z,33.6
2018-08-19T10:31:16.123Z,33.3
2018-08-19T10:32:05.987Z,33.3
2018-08-19T10:32:56.593Z,32.9
2018-08-19T10:33:46.666Z,32.6
2018-08-19T10:34:36.754Z,32.1
2018-08-19T10:35:26.499Z,31.9
2018-08-19T10:36:16.872Z,31.9
2018-08-19T10:37:06.925Z,32.4
2018-08-19T10:37:57.008Z,32.8
2018-08-19T10:38:47.091Z,33.6
2018-08-19T10:39:36.857Z,33.8
2018-08-19T10:40:26.646Z,33.2
2018-08-19T10:41:17.274Z,33.5
2018-08-19T10:42:07.345Z,33.4
2018-08-19T10:42:57.422Z,33.1
2018-08-19T10:43:46.977Z,32.6
2018-08-19T10:44:37.253Z,32.6
2018-08-19T10:45:27.615Z,32.5
2018-08-19T10:46:18.153Z,32.8
2018-08-19T10:47:07.464Z,31.9
2018-08-19T10:47:57.534Z,32.3
2018-08-19T10:48:47.881Z,33.3
2018-08-19T10:49:37.955Z,33.9
2018-08-19T10:50:28.046Z,34.2
2018-08-19T10:51:18.066Z,34.3
2018-08-19T10:52:08.138Z,33.8
2018-08-19T10:52:58.203Z,33.3
2018-08-19T10:53:48.281Z,33
2018-08-19T10:54:38.318Z,33
2018-08-19T10:55:28.396Z,33.4
2018-08-19T10:56:18.492Z,33.1
2018-08-19T10:57:08.254Z,33.6
2018-08-19T10:57:58.639Z,33.9
2018-08-19T10:58:48.684Z,34.1
2018-08-19T10:59:38.694Z,33.8
2018-08-19T11:00:28.217Z,34.1
2018-08-19T11:01:18.267Z,34.4
2018-08-19T11:02:08.885Z,33.6
2018-08-19T11:02:58.410Z,32.4
2018-08-19T11:03:49.038Z,32.6
2018-08-19T11:04:38.529Z,33.3
2018-08-19T11:05:28.888Z,32.9
2018-08-19T11:06:19.199Z,33.1
2018-08-19T11:07:09.311Z,33.1
2018-08-19T11:07:59.370Z,33.7
2018-08-19T11:08:49.400Z,33.7
2018-08-19T11:09:39.534Z,33.8
2018-08-19T11:10:29.545Z,33.7
2018-08-19T11:11:19.610Z,33.1
2018-08-19T11:12:09.111Z,33
2018-08-19T11:12:59.488Z,32.6
2018-08-19T11:13:49.536Z,33.3
2018-08-19T11:14:39.643Z,34.2
2018-08-19T11:15:29.731Z,34.4
2018-08-19T11:16:19.996Z,34.3
2018-08-19T11:17:10.123Z,34.1
2018-08-19T11:18:00.171Z,34.3
2018-08-19T11:18:50.230Z,34.8
2018-08-19T11:19:40.007Z,34.4
2018-08-19T11:20:30.382Z,34.2
2018-08-19T11:21:20.507Z,33.6
2018-08-19T11:22:09.922Z,33.7
2018-08-19T11:23:00.260Z,34.3
2018-08-19T11:23:50.336Z,34.5
2018-08-19T11:24:40.687Z,34.3
2018-08-19T11:25:30.794Z,33.8
2018-08-19T11:26:20.826Z,33.8
2018-08-19T11:27:10.889Z,33.9
2018-08-19T11:28:00.935Z,33.8
2018-08-19T11:28:50.751Z,33.7
2018-08-19T11:29:40.524Z,33.6
2018-08-19T11:30:31.126Z,33.9
2018-08-19T11:31:21.235Z,34.4
2018-08-19T11:32:11.015Z,34.3
2018-08-19T11:33:01.344Z,34.4
2018-08-19T11:33:51.467Z,34.1
2018-08-19T11:34:41.181Z,34.3
2018-08-19T11:35:31.245Z,34
2018-08-19T11:36:21.566Z,33.6
2018-08-19T11:37:11.631Z,33.4
2018-08-19T11:38:01.716Z,33.4
2018-08-19T11:38:51.789Z,33.3
2018-08-19T11:39:41.564Z,33.3
2018-08-19T11:40:31.640Z,33.1
2018-08-19T11:41:21.388Z,33.9
2018-08-19T11:42:12.053Z,34.1
2018-08-19T11:43:02.081Z,33.7
2018-08-19T11:43:52.193Z,33.7
2018-08-19T11:44:42.247Z,33.6
2018-08-19T11:45:32.290Z,33.5
2018-08-19T11:46:22.368Z,33.3
2018-08-19T11:47:12.428Z,32.9
2018-08-19T11:48:02.486Z,32.8
2018-08-19T11:48:53.146Z,32.9
2018-08-19T11:49:42.626Z,33.1
2018-08-19T11:50:32.687Z,33
2018-08-19T11:51:22.745Z,33.1
2018-08-19T11:52:12.834Z,33.3
2018-08-19T11:53:02.908Z,33.4
2018-08-19T11:53:52.997Z,33.4
2018-08-19T11:54:43.053Z,33.4
2018-08-19T11:55:33.128Z,33.1
2018-08-19T11:56:23.174Z,32.8
2018-08-19T11:57:12.973Z,32.8
2018-08-19T11:58:03.307Z,32.6
2018-08-19T11:58:53.375Z,32.4
2018-08-19T11:59:43.184Z,32.7
2018-08-19T12:00:33.516Z,32.6
2018-08-19T12:01:23.614Z,33.3
2018-08-19T12:02:13.805Z,32.7
2018-08-19T12:03:03.766Z,32.3
2018-08-19T12:03:53.531Z,32.3
2018-08-19T12:04:43.860Z,32.4
2018-08-19T12:05:33.929Z,32.2
2018-08-19T12:06:23.688Z,32.4
2018-08-19T12:07:13.753Z,32.5
2018-08-19T12:08:04.108Z,33.1
2018-08-19T12:08:53.878Z,32.9
2018-08-19T12:09:45.297Z,32.8
2018-08-19T12:10:34.294Z,32.8